Elko Rgnl Information

FAA: EKO - ICAO: KEKO

Elko Rgnl (Airport) Location

State Nevada
County Elko
City Elko
Elko Rgnl (Airport) is 1 mile west of Elko, NV.
Latitude 40-49-30.0000N
Longitude 115-47-28.8000W
Elevation 5,139ft

Elko Rgnl METARs

METAR KEKO 250056Z AUTO 20008KT 10SM -RA OVC060 14/04 A2961 RMK AO2 RAB2359E13B33 SLP006 P0000 T01390044
Altimeter 29.61"
Temperature 13.9°C (57.0°F)
Wind 200° at 8KT
Clouds overcast at 6,000ft
Visibility 10.0mi
Time observed: 2021-10-25T00:56:00Z

Elko Rgnl (Airport) Details

Status Operational
Activation April 1940
Ownership Public
Usage Public
Chart SALT LAKE CITY
ATC on-site No
Beacon schedule sunset-sunrise
Beacon color clear green

Elko Rgnl (Airport) Contacts

Owner CITY OF ELKO
Owner address 975 TERMINAL WAY, ELKO, NV 89801
Owner phone 775-777-7190
Manager RAY SWANSON
Manager address P.O. BOX 1146, HANFORD, CA 93232
Manager phone 209-584-3217

Elko Rgnl Radio Frequencies

Elko Rgnl (Airport) Radio Frequencies

UNICOM 123
Common traffic advisory frequency (CTAF) 123